sensor_id;sensor_type;location;lat;lon;timestamp;temperature;humidity
74153;DHT22;62505;46.070;14.492;2023-02-10T00:01:38;20.50;51.70
74153;DHT22;62505;46.070;14.492;2023-02-10T00:04:05;20.50;51.80
74153;DHT22;62505;46.070;14.492;2023-02-10T00:06:33;20.50;51.80
74153;DHT22;62505;46.070;14.492;2023-02-10T00:09:02;20.50;51.80
74153;DHT22;62505;46.070;14.492;2023-02-10T00:11:30;20.50;51.80
74153;DHT22;62505;46.070;14.492;2023-02-10T00:14:15;20.40;51.70
74153;DHT22;62505;46.070;14.492;2023-02-10T00:16:43;20.40;51.70
74153;DHT22;62505;46.070;14.492;2023-02-10T00:19:10;20.50;51.80
74153;DHT22;62505;46.070;14.492;2023-02-10T00:21:37;20.50;51.80
74153;DHT22;62505;46.070;14.492;2023-02-10T00:24:06;20.40;51.80
74153;DHT22;62505;46.070;14.492;2023-02-10T00:26:33;20.40;51.80
74153;DHT22;62505;46.070;14.492;2023-02-10T00:29:00;20.40;51.80
74153;DHT22;62505;46.070;14.492;2023-02-10T00:31:27;20.40;51.70
74153;DHT22;62505;46.070;14.492;2023-02-10T00:33:54;20.50;51.80
74153;DHT22;62505;46.070;14.492;2023-02-10T00:36:21;20.50;51.80
74153;DHT22;62505;46.070;14.492;2023-02-10T00:38:50;20.50;51.80
74153;DHT22;62505;46.070;14.492;2023-02-10T00:41:21;20.40;51.80
74153;DHT22;62505;46.070;14.492;2023-02-10T00:43:48;20.40;51.80
74153;DHT22;62505;46.070;14.492;2023-02-10T00:46:17;20.40;51.70
74153;DHT22;62505;46.070;14.492;2023-02-10T00:48:45;20.40;51.70
74153;DHT22;62505;46.070;14.492;2023-02-10T00:51:13;20.40;51.80
74153;DHT22;62505;46.070;14.492;2023-02-10T00:53:41;20.50;51.80
74153;DHT22;62505;46.070;14.492;2023-02-10T00:56:08;20.40;51.70
74153;DHT22;62505;46.070;14.492;2023-02-10T00:58:37;20.40;51.70
74153;DHT22;62505;46.070;14.492;2023-02-10T01:01:04;20.40;51.70
74153;DHT22;62505;46.070;14.492;2023-02-10T01:03:31;20.40;51.70
74153;DHT22;62505;46.070;14.492;2023-02-10T01:05:59;20.40;51.70
74153;DHT22;62505;46.070;14.492;2023-02-10T01:08:26;20.40;51.80
74153;DHT22;62505;46.070;14.492;2023-02-10T01:10:58;20.50;51.80
74153;DHT22;62505;46.070;14.492;2023-02-10T01:13:25;20.50;51.70
74153;DHT22;62505;46.070;14.492;2023-02-10T01:15:54;20.40;51.70
74153;DHT22;62505;46.070;14.492;2023-02-10T01:18:21;20.40;52.40
74153;DHT22;62505;46.070;14.492;2023-02-10T01:20:48;20.40;51.70
74153;DHT22;62505;46.070;14.492;2023-02-10T01:23:15;20.40;51.70
74153;DHT22;62505;46.070;14.492;2023-02-10T01:25:42;20.40;52.30
74153;DHT22;62505;46.070;14.492;2023-02-10T01:28:09;20.40;51.70
74153;DHT22;62505;46.070;14.492;2023-02-10T01:30:36;20.40;51.70
74153;DHT22;62505;46.070;14.492;2023-02-10T01:33:05;20.40;51.70
74153;DHT22;62505;46.070;14.492;2023-02-10T01:35:32;20.40;51.60
74153;DHT22;62505;46.070;14.492;2023-02-10T01:37:59;20.40;51.70
74153;DHT22;62505;46.070;14.492;2023-02-10T01:40:26;20.40;51.80
74153;DHT22;62505;46.070;14.492;2023-02-10T01:42:54;20.40;51.70
74153;DHT22;62505;46.070;14.492;2023-02-10T01:45:25;20.50;51.70
74153;DHT22;62505;46.070;14.492;2023-02-10T01:47:54;20.40;51.70
74153;DHT22;62505;46.070;14.492;2023-02-10T01:50:25;20.40;51.70
74153;DHT22;62505;46.070;14.492;2023-02-10T01:52:53;20.40;51.70
74153;DHT22;62505;46.070;14.492;2023-02-10T01:55:24;20.40;51.70
74153;DHT22;62505;46.070;14.492;2023-02-10T01:57:52;20.40;51.70
74153;DHT22;62505;46.070;14.492;2023-02-10T02:00:20;20.40;51.70
74153;DHT22;62505;46.070;14.492;2023-02-10T02:02:48;20.40;51.70
74153;DHT22;62505;46.070;14.492;2023-02-10T02:05:27;20.40;51.70
74153;DHT22;62505;46.070;14.492;2023-02-10T02:07:56;20.40;51.80
74153;DHT22;62505;46.070;14.492;2023-02-10T02:10:30;20.40;51.70
74153;DHT22;62505;46.070;14.492;2023-02-10T02:13:05;20.40;51.70
74153;DHT22;62505;46.070;14.492;2023-02-10T02:15:38;20.40;51.70
74153;DHT22;62505;46.070;14.492;2023-02-10T02:18:11;20.40;51.70
74153;DHT22;62505;46.070;14.492;2023-02-10T02:24:01;20.40;51.70
74153;DHT22;62505;46.070;14.492;2023-02-10T02:26:49;20.40;51.80
74153;DHT22;62505;46.070;14.492;2023-02-10T02:32:25;20.40;52.50
74153;DHT22;62505;46.070;14.492;2023-02-10T02:34:58;20.40;51.80
74153;DHT22;62505;46.070;14.492;2023-02-10T02:37:29;20.40;51.70
74153;DHT22;62505;46.070;14.492;2023-02-10T02:39:57;20.40;51.80
74153;DHT22;62505;46.070;14.492;2023-02-10T02:42:25;20.40;51.70
74153;DHT22;62505;46.070;14.492;2023-02-10T02:44:55;20.40;51.70
74153;DHT22;62505;46.070;14.492;2023-02-10T02:47:37;20.40;51.80
74153;DHT22;62505;46.070;14.492;2023-02-10T02:50:21;20.40;51.70
74153;DHT22;62505;46.070;14.492;2023-02-10T02:53:04;20.40;51.70
74153;DHT22;62505;46.070;14.492;2023-02-10T02:55:39;20.40;51.70
74153;DHT22;62505;46.070;14.492;2023-02-10T02:58:15;20.40;51.70
74153;DHT22;62505;46.070;14.492;2023-02-10T03:00:46;20.40;51.70
74153;DHT22;62505;46.070;14.492;2023-02-10T03:03:15;20.40;51.70
74153;DHT22;62505;46.070;14.492;2023-02-10T03:05:43;20.40;51.70
74153;DHT22;62505;46.070;14.492;2023-02-10T03:08:09;20.40;51.70
74153;DHT22;62505;46.070;14.492;2023-02-10T03:10:36;20.40;51.80
74153;DHT22;62505;46.070;14.492;2023-02-10T03:13:03;20.40;51.70
74153;DHT22;62505;46.070;14.492;2023-02-10T03:15:30;20.40;51.80
74153;DHT22;62505;46.070;14.492;2023-02-10T03:17:57;20.40;51.80
74153;DHT22;62505;46.070;14.492;2023-02-10T03:20:26;20.40;51.70
74153;DHT22;62505;46.070;14.492;2023-02-10T03:22:53;20.40;51.70
74153;DHT22;62505;46.070;14.492;2023-02-10T03:25:20;20.40;51.80
74153;DHT22;62505;46.070;14.492;2023-02-10T03:27:47;20.40;51.70
74153;DHT22;62505;46.070;14.492;2023-02-10T03:30:14;20.40;51.70
74153;DHT22;62505;46.070;14.492;2023-02-10T03:32:41;20.40;51.70
74153;DHT22;62505;46.070;14.492;2023-02-10T03:35:08;20.40;51.70
74153;DHT22;62505;46.070;14.492;2023-02-10T03:37:36;20.40;51.80
74153;DHT22;62505;46.070;14.492;2023-02-10T03:40:03;20.40;51.70
74153;DHT22;62505;46.070;14.492;2023-02-10T03:42:30;20.40;51.70
74153;DHT22;62505;46.070;14.492;2023-02-10T03:44:57;20.40;51.80
74153;DHT22;62505;46.070;14.492;2023-02-10T03:47:24;20.40;51.70
74153;DHT22;62505;46.070;14.492;2023-02-10T03:49:51;20.40;51.80
74153;DHT22;62505;46.070;14.492;2023-02-10T03:52:18;20.40;51.70
74153;DHT22;62505;46.070;14.492;2023-02-10T03:54:47;20.40;51.70
74153;DHT22;62505;46.070;14.492;2023-02-10T03:57:13;20.40;51.70
74153;DHT22;62505;46.070;14.492;2023-02-10T03:59:40;20.40;51.80
74153;DHT22;62505;46.070;14.492;2023-02-10T04:02:07;20.40;51.70
74153;DHT22;62505;46.070;14.492;2023-02-10T04:04:35;20.40;51.70
74153;DHT22;62505;46.070;14.492;2023-02-10T04:07:02;20.40;51.70
74153;DHT22;62505;46.070;14.492;2023-02-10T04:09:29;20.40;51.70
74153;DHT22;62505;46.070;14.492;2023-02-10T04:11:58;20.40;51.70
74153;DHT22;62505;46.070;14.492;2023-02-10T04:14:25;20.40;51.70
74153;DHT22;62505;46.070;14.492;2023-02-10T04:16:52;20.40;51.80
74153;DHT22;62505;46.070;14.492;2023-02-10T04:19:19;20.40;51.70
74153;DHT22;62505;46.070;14.492;2023-02-10T04:21:46;20.40;51.70
74153;DHT22;62505;46.070;14.492;2023-02-10T04:24:14;20.40;51.70
74153;DHT22;62505;46.070;14.492;2023-02-10T04:26:41;20.40;51.70
74153;DHT22;62505;46.070;14.492;2023-02-10T04:29:09;20.40;51.70
74153;DHT22;62505;46.070;14.492;2023-02-10T04:31:36;20.40;51.70
74153;DHT22;62505;46.070;14.492;2023-02-10T04:34:03;20.40;51.70
74153;DHT22;62505;46.070;14.492;2023-02-10T04:36:30;20.30;51.70
74153;DHT22;62505;46.070;14.492;2023-02-10T04:38:57;20.40;51.70
74153;DHT22;62505;46.070;14.492;2023-02-10T04:41:24;20.30;51.70
74153;DHT22;62505;46.070;14.492;2023-02-10T04:43:51;20.40;51.70
74153;DHT22;62505;46.070;14.492;2023-02-10T04:46:19;20.40;51.80
74153;DHT22;62505;46.070;14.492;2023-02-10T04:48:46;20.40;51.80
74153;DHT22;62505;46.070;14.492;2023-02-10T04:51:13;20.40;51.70
74153;DHT22;62505;46.070;14.492;2023-02-10T04:53:41;20.30;51.70
74153;DHT22;62505;46.070;14.492;2023-02-10T04:56:09;20.30;51.70
74153;DHT22;62505;46.070;14.492;2023-02-10T04:58:37;20.40;51.80
74153;DHT22;62505;46.070;14.492;2023-02-10T05:01:04;20.30;51.70
74153;DHT22;62505;46.070;14.492;2023-02-10T05:03:32;20.40;51.70
74153;DHT22;62505;46.070;14.492;2023-02-10T05:05:59;20.40;51.80
74153;DHT22;62505;46.070;14.492;2023-02-10T05:08:31;20.30;51.70
74153;DHT22;62505;46.070;14.492;2023-02-10T05:10:58;20.30;51.80
74153;DHT22;62505;46.070;14.492;2023-02-10T05:13:25;20.30;51.80
74153;DHT22;62505;46.070;14.492;2023-02-10T05:15:52;20.40;51.90
74153;DHT22;62505;46.070;14.492;2023-02-10T05:18:19;20.30;51.90
74153;DHT22;62505;46.070;14.492;2023-02-10T05:20:48;20.30;51.90
74153;DHT22;62505;46.070;14.492;2023-02-10T05:23:15;20.30;51.90
74153;DHT22;62505;46.070;14.492;2023-02-10T05:25:42;20.40;52.00
74153;DHT22;62505;46.070;14.492;2023-02-10T05:28:08;20.30;51.90
74153;DHT22;62505;46.070;14.492;2023-02-10T05:30:35;20.30;51.90
74153;DHT22;62505;46.070;14.492;2023-02-10T05:33:02;20.30;52.00
74153;DHT22;62505;46.070;14.492;2023-02-10T05:35:29;20.30;52.00
74153;DHT22;62505;46.070;14.492;2023-02-10T05:37:58;20.40;52.00
74153;DHT22;62505;46.070;14.492;2023-02-10T05:40:27;20.30;52.00
74153;DHT22;62505;46.070;14.492;2023-02-10T05:42:54;20.40;52.10
74153;DHT22;62505;46.070;14.492;2023-02-10T05:45:21;20.40;52.00
74153;DHT22;62505;46.070;14.492;2023-02-10T05:47:48;20.40;52.00
74153;DHT22;62505;46.070;14.492;2023-02-10T05:50:16;20.30;52.00
74153;DHT22;62505;46.070;14.492;2023-02-10T05:52:43;20.40;52.10
74153;DHT22;62505;46.070;14.492;2023-02-10T05:55:12;20.40;52.10
74153;DHT22;62505;46.070;14.492;2023-02-10T05:57:39;20.30;52.00
74153;DHT22;62505;46.070;14.492;2023-02-10T06:00:08;20.40;52.00
74153;DHT22;62505;46.070;14.492;2023-02-10T06:02:35;20.40;52.00
74153;DHT22;62505;46.070;14.492;2023-02-10T06:05:02;20.40;52.10
74153;DHT22;62505;46.070;14.492;2023-02-10T06:07:29;20.30;52.00
74153;DHT22;62505;46.070;14.492;2023-02-10T06:09:56;20.40;52.10
74153;DHT22;62505;46.070;14.492;2023-02-10T06:12:24;20.40;52.10
74153;DHT22;62505;46.070;14.492;2023-02-10T06:14:51;20.40;52.10
74153;DHT22;62505;46.070;14.492;2023-02-10T06:17:18;20.40;52.10
74153;DHT22;62505;46.070;14.492;2023-02-10T06:19:45;20.30;52.00
74153;DHT22;62505;46.070;14.492;2023-02-10T06:22:12;20.30;52.00
74153;DHT22;62505;46.070;14.492;2023-02-10T06:24:39;20.30;52.10
74153;DHT22;62505;46.070;14.492;2023-02-10T06:27:07;20.30;52.00
74153;DHT22;62505;46.070;14.492;2023-02-10T06:29:35;20.40;52.10
74153;DHT22;62505;46.070;14.492;2023-02-10T06:32:02;20.40;52.10
74153;DHT22;62505;46.070;14.492;2023-02-10T06:34:29;20.30;52.00
74153;DHT22;62505;46.070;14.492;2023-02-10T06:36:56;20.30;52.00
74153;DHT22;62505;46.070;14.492;2023-02-10T06:39:23;20.30;52.00
74153;DHT22;62505;46.070;14.492;2023-02-10T06:41:50;20.30;52.00
74153;DHT22;62505;46.070;14.492;2023-02-10T06:44:17;20.30;52.00
74153;DHT22;62505;46.070;14.492;2023-02-10T06:46:46;20.30;52.00
74153;DHT22;62505;46.070;14.492;2023-02-10T06:49:13;20.40;52.00
74153;DHT22;62505;46.070;14.492;2023-02-10T06:51:40;20.30;52.00
74153;DHT22;62505;46.070;14.492;2023-02-10T06:54:07;20.30;52.00
74153;DHT22;62505;46.070;14.492;2023-02-10T06:56:34;20.30;52.00
74153;DHT22;62505;46.070;14.492;2023-02-10T06:59:00;20.30;52.00
74153;DHT22;62505;46.070;14.492;2023-02-10T07:01:27;20.30;52.00
74153;DHT22;62505;46.070;14.492;2023-02-10T07:03:56;20.30;52.00
74153;DHT22;62505;46.070;14.492;2023-02-10T07:06:23;20.40;51.90
74153;DHT22;62505;46.070;14.492;2023-02-10T07:08:50;20.30;52.00
74153;DHT22;62505;46.070;14.492;2023-02-10T07:11:17;20.40;52.00
74153;DHT22;62505;46.070;14.492;2023-02-10T07:13:44;20.30;51.90
74153;DHT22;62505;46.070;14.492;2023-02-10T07:16:11;20.30;52.00
74153;DHT22;62505;46.070;14.492;2023-02-10T07:18:40;20.40;52.00
74153;DHT22;62505;46.070;14.492;2023-02-10T07:21:09;20.30;52.00
74153;DHT22;62505;46.070;14.492;2023-02-10T07:23:36;20.30;52.00
74153;DHT22;62505;46.070;14.492;2023-02-10T07:26:03;20.40;52.00
74153;DHT22;62505;46.070;14.492;2023-02-10T07:28:31;20.40;51.90
74153;DHT22;62505;46.070;14.492;2023-02-10T07:30:58;20.40;52.00
74153;DHT22;62505;46.070;14.492;2023-02-10T07:33:25;20.30;51.90
74153;DHT22;62505;46.070;14.492;2023-02-10T07:35:54;20.40;52.00
74153;DHT22;62505;46.070;14.492;2023-02-10T07:38:22;20.30;51.90
74153;DHT22;62505;46.070;14.492;2023-02-10T07:40:49;20.40;52.00
74153;DHT22;62505;46.070;14.492;2023-02-10T07:43:16;20.40;52.00
74153;DHT22;62505;46.070;14.492;2023-02-10T07:45:43;20.40;52.00
74153;DHT22;62505;46.070;14.492;2023-02-10T07:48:10;20.40;52.00
74153;DHT22;62505;46.070;14.492;2023-02-10T07:50:37;20.40;51.90
74153;DHT22;62505;46.070;14.492;2023-02-10T07:53:04;20.40;51.90
74153;DHT22;62505;46.070;14.492;2023-02-10T07:55:32;20.40;51.90
74153;DHT22;62505;46.070;14.492;2023-02-10T07:57:59;20.40;51.90
74153;DHT22;62505;46.070;14.492;2023-02-10T08:00:26;20.30;51.80
74153;DHT22;62505;46.070;14.492;2023-02-10T08:02:53;20.40;51.90
74153;DHT22;62505;46.070;14.492;2023-02-10T08:05:20;20.40;51.90
74153;DHT22;62505;46.070;14.492;2023-02-10T08:07:48;20.30;51.90
74153;DHT22;62505;46.070;14.492;2023-02-10T08:10:15;20.30;51.90
74153;DHT22;62505;46.070;14.492;2023-02-10T08:12:43;20.30;51.90
74153;DHT22;62505;46.070;14.492;2023-02-10T08:15:12;20.40;51.90
74153;DHT22;62505;46.070;14.492;2023-02-10T08:17:39;20.30;51.90
74153;DHT22;62505;46.070;14.492;2023-02-10T08:20:08;20.40;51.80
74153;DHT22;62505;46.070;14.492;2023-02-10T08:22:35;20.30;51.80
74153;DHT22;62505;46.070;14.492;2023-02-10T08:25:03;20.40;51.90
74153;DHT22;62505;46.070;14.492;2023-02-10T08:27:30;20.40;51.80
74153;DHT22;62505;46.070;14.492;2023-02-10T08:29:58;20.40;52.00
74153;DHT22;62505;46.070;14.492;2023-02-10T08:32:25;20.40;51.80
74153;DHT22;62505;46.070;14.492;2023-02-10T08:34:52;20.40;52.50
74153;DHT22;62505;46.070;14.492;2023-02-10T08:37:19;20.30;51.80
74153;DHT22;62505;46.070;14.492;2023-02-10T08:39:47;20.30;51.80
74153;DHT22;62505;46.070;14.492;2023-02-10T08:42:14;20.40;51.70
74153;DHT22;62505;46.070;14.492;2023-02-10T08:44:41;20.40;51.70
74153;DHT22;62505;46.070;14.492;2023-02-10T08:47:09;20.40;51.80
74153;DHT22;62505;46.070;14.492;2023-02-10T08:49:40;20.40;51.70
74153;DHT22;62505;46.070;14.492;2023-02-10T08:52:07;20.40;51.80
74153;DHT22;62505;46.070;14.492;2023-02-10T08:54:34;20.30;51.80
74153;DHT22;62505;46.070;14.492;2023-02-10T08:57:01;20.30;51.70
74153;DHT22;62505;46.070;14.492;2023-02-10T08:59:29;20.30;51.70
74153;DHT22;62505;46.070;14.492;2023-02-10T09:01:56;20.40;51.80
74153;DHT22;62505;46.070;14.492;2023-02-10T09:04:25;20.40;51.70
74153;DHT22;62505;46.070;14.492;2023-02-10T09:06:52;20.30;51.70
74153;DHT22;62505;46.070;14.492;2023-02-10T09:09:21;20.30;51.70
74153;DHT22;62505;46.070;14.492;2023-02-10T09:11:50;20.30;51.80
74153;DHT22;62505;46.070;14.492;2023-02-10T09:14:17;20.40;51.70
74153;DHT22;62505;46.070;14.492;2023-02-10T09:16:44;20.30;51.70
74153;DHT22;62505;46.070;14.492;2023-02-10T09:19:12;20.30;51.70
74153;DHT22;62505;46.070;14.492;2023-02-10T09:21:40;20.30;51.70
74153;DHT22;62505;46.070;14.492;2023-02-10T09:24:07;20.30;51.70
74153;DHT22;62505;46.070;14.492;2023-02-10T09:26:34;20.30;51.70
74153;DHT22;62505;46.070;14.492;2023-02-10T09:29:01;20.30;51.70
74153;DHT22;62505;46.070;14.492;2023-02-10T09:31:28;20.30;51.70
74153;DHT22;62505;46.070;14.492;2023-02-10T09:33:55;20.30;51.70
74153;DHT22;62505;46.070;14.492;2023-02-10T09:36:22;20.30;51.70
74153;DHT22;62505;46.070;14.492;2023-02-10T09:38:50;20.30;51.70
74153;DHT22;62505;46.070;14.492;2023-02-10T09:41:28;20.30;51.70
74153;DHT22;62505;46.070;14.492;2023-02-10T09:44:05;20.30;51.70
74153;DHT22;62505;46.070;14.492;2023-02-10T09:46:55;20.30;51.70
74153;DHT22;62505;46.070;14.492;2023-02-10T09:49:43;20.30;51.70
74153;DHT22;62505;46.070;14.492;2023-02-10T09:52:21;20.30;51.70
74153;DHT22;62505;46.070;14.492;2023-02-10T09:54:55;20.30;51.70
74153;DHT22;62505;46.070;14.492;2023-02-10T09:57:27;20.40;51.80
74153;DHT22;62505;46.070;14.492;2023-02-10T09:59:57;20.30;51.70
74153;DHT22;62505;46.070;14.492;2023-02-10T10:02:30;20.40;51.70
74153;DHT22;62505;46.070;14.492;2023-02-10T10:04:59;20.30;51.70
74153;DHT22;62505;46.070;14.492;2023-02-10T10:07:30;20.30;51.70
74153;DHT22;62505;46.070;14.492;2023-02-10T10:10:02;20.30;51.70
74153;DHT22;62505;46.070;14.492;2023-02-10T10:12:30;20.40;51.70
74153;DHT22;62505;46.070;14.492;2023-02-10T10:14:57;20.30;51.70
74153;DHT22;62505;46.070;14.492;2023-02-10T10:17:37;20.30;51.70
74153;DHT22;62505;46.070;14.492;2023-02-10T10:23:27;20.30;51.70
74153;DHT22;62505;46.070;14.492;2023-02-10T10:26:15;20.40;51.70
74153;DHT22;62505;46.070;14.492;2023-02-10T10:29:01;20.40;51.70
74153;DHT22;62505;46.070;14.492;2023-02-10T10:31:32;20.40;51.60
74153;DHT22;62505;46.070;14.492;2023-02-10T10:34:08;20.40;51.70
74153;DHT22;62505;46.070;14.492;2023-02-10T10:36:37;20.40;51.70
74153;DHT22;62505;46.070;14.492;2023-02-10T10:39:11;20.40;51.70
74153;DHT22;62505;46.070;14.492;2023-02-10T10:41:41;20.30;51.60
74153;DHT22;62505;46.070;14.492;2023-02-10T10:44:11;20.40;51.70
74153;DHT22;62505;46.070;14.492;2023-02-10T10:46:43;20.30;51.70
74153;DHT22;62505;46.070;14.492;2023-02-10T10:49:12;20.30;51.60
74153;DHT22;62505;46.070;14.492;2023-02-10T10:51:39;20.30;51.60
74153;DHT22;62505;46.070;14.492;2023-02-10T10:54:10;20.40;51.70
74153;DHT22;62505;46.070;14.492;2023-02-10T10:56:43;20.30;51.60
74153;DHT22;62505;46.070;14.492;2023-02-10T10:59:15;20.40;51.70
74153;DHT22;62505;46.070;14.492;2023-02-10T11:01:44;20.40;51.70
74153;DHT22;62505;46.070;14.492;2023-02-10T11:04:13;20.30;51.60
74153;DHT22;62505;46.070;14.492;2023-02-10T11:06:42;20.40;51.70
74153;DHT22;62505;46.070;14.492;2023-02-10T11:09:19;20.30;51.70
74153;DHT22;62505;46.070;14.492;2023-02-10T11:11:49;20.40;51.70
74153;DHT22;62505;46.070;14.492;2023-02-10T11:14:20;20.40;51.70
74153;DHT22;62505;46.070;14.492;2023-02-10T11:16:50;20.30;51.70
74153;DHT22;62505;46.070;14.492;2023-02-10T11:19:19;20.40;51.70
74153;DHT22;62505;46.070;14.492;2023-02-10T11:21:47;20.40;51.70
74153;DHT22;62505;46.070;14.492;2023-02-10T11:24:19;20.40;51.70
74153;DHT22;62505;46.070;14.492;2023-02-10T11:26:56;20.40;51.70
74153;DHT22;62505;46.070;14.492;2023-02-10T11:29:23;20.40;51.70
74153;DHT22;62505;46.070;14.492;2023-02-10T11:31:52;20.30;51.70
74153;DHT22;62505;46.070;14.492;2023-02-10T11:34:26;20.40;51.70
74153;DHT22;62505;46.070;14.492;2023-02-10T11:36:55;20.40;51.70
74153;DHT22;62505;46.070;14.492;2023-02-10T11:39:25;20.30;51.70
74153;DHT22;62505;46.070;14.492;2023-02-10T11:41:55;20.30;52.30
74153;DHT22;62505;46.070;14.492;2023-02-10T11:44:25;20.30;51.70
74153;DHT22;62505;46.070;14.492;2023-02-10T11:47:00;20.30;51.70
74153;DHT22;62505;46.070;14.492;2023-02-10T11:49:28;20.30;51.70
74153;DHT22;62505;46.070;14.492;2023-02-10T11:51:58;20.30;51.70
74153;DHT22;62505;46.070;14.492;2023-02-10T11:54:27;20.30;51.70
74153;DHT22;62505;46.070;14.492;2023-02-10T11:57:11;20.30;51.70
74153;DHT22;62505;46.070;14.492;2023-02-10T12:00:07;20.30;51.70
74153;DHT22;62505;46.070;14.492;2023-02-10T12:02:53;20.40;51.70
74153;DHT22;62505;46.070;14.492;2023-02-10T12:05:28;20.40;51.70
74153;DHT22;62505;46.070;14.492;2023-02-10T12:08:07;20.40;51.70
74153;DHT22;62505;46.070;14.492;2023-02-10T12:10:41;20.40;51.70
74153;DHT22;62505;46.070;14.492;2023-02-10T12:13:19;20.40;51.70
74153;DHT22;62505;46.070;14.492;2023-02-10T12:15:53;20.40;51.70
74153;DHT22;62505;46.070;14.492;2023-02-10T12:18:40;20.40;51.70
74153;DHT22;62505;46.070;14.492;2023-02-10T12:21:20;20.40;51.70
74153;DHT22;62505;46.070;14.492;2023-02-10T12:24:01;20.40;51.70
74153;DHT22;62505;46.070;14.492;2023-02-10T12:26:34;20.40;51.70
74153;DHT22;62505;46.070;14.492;2023-02-10T12:29:19;20.40;51.80
74153;DHT22;62505;46.070;14.492;2023-02-10T12:31:56;20.40;51.80
74153;DHT22;62505;46.070;14.492;2023-02-10T12:34:39;20.40;51.80
74153;DHT22;62505;46.070;14.492;2023-02-10T12:37:17;20.40;51.70
74153;DHT22;62505;46.070;14.492;2023-02-10T12:40:07;20.40;51.80
74153;DHT22;62505;46.070;14.492;2023-02-10T12:42:45;20.40;51.70
74153;DHT22;62505;46.070;14.492;2023-02-10T12:45:22;20.40;51.70
74153;DHT22;62505;46.070;14.492;2023-02-10T12:48:00;20.40;51.80
74153;DHT22;62505;46.070;14.492;2023-02-10T12:50:38;20.40;51.70
74153;DHT22;62505;46.070;14.492;2023-02-10T12:53:12;20.40;51.70
74153;DHT22;62505;46.070;14.492;2023-02-10T12:55:48;20.40;51.70
74153;DHT22;62505;46.070;14.492;2023-02-10T12:58:21;20.40;51.70
74153;DHT22;62505;46.070;14.492;2023-02-10T13:00:55;20.40;51.70
74153;DHT22;62505;46.070;14.492;2023-02-10T13:03:28;20.40;51.70
74153;DHT22;62505;46.070;14.492;2023-02-10T13:06:05;20.40;51.70
74153;DHT22;62505;46.070;14.492;2023-02-10T13:08:41;20.40;51.70
74153;DHT22;62505;46.070;14.492;2023-02-10T13:11:14;20.40;51.70
74153;DHT22;62505;46.070;14.492;2023-02-10T13:13:44;20.40;51.60
74153;DHT22;62505;46.070;14.492;2023-02-10T13:16:17;20.40;51.60
74153;DHT22;62505;46.070;14.492;2023-02-10T13:18:50;20.40;51.60
74153;DHT22;62505;46.070;14.492;2023-02-10T13:21:22;20.40;51.70
74153;DHT22;62505;46.070;14.492;2023-02-10T13:23:56;20.40;51.60
74153;DHT22;62505;46.070;14.492;2023-02-10T13:26:41;20.40;51.70
74153;DHT22;62505;46.070;14.492;2023-02-10T13:29:17;20.40;51.60
74153;DHT22;62505;46.070;14.492;2023-02-10T13:32:00;20.40;51.70
74153;DHT22;62505;46.070;14.492;2023-02-10T13:34:31;20.40;51.70
74153;DHT22;62505;46.070;14.492;2023-02-10T13:37:04;20.40;51.70
74153;DHT22;62505;46.070;14.492;2023-02-10T13:39:33;20.40;51.70
74153;DHT22;62505;46.070;14.492;2023-02-10T13:42:09;20.40;51.60
74153;DHT22;62505;46.070;14.492;2023-02-10T13:44:40;20.40;51.70
74153;DHT22;62505;46.070;14.492;2023-02-10T13:47:27;20.40;51.70
74153;DHT22;62505;46.070;14.492;2023-02-10T13:49:57;20.30;51.60
74153;DHT22;62505;46.070;14.492;2023-02-10T13:52:27;20.40;51.70
74153;DHT22;62505;46.070;14.492;2023-02-10T13:54:58;20.40;51.70
74153;DHT22;62505;46.070;14.492;2023-02-10T13:57:29;20.30;51.70
74153;DHT22;62505;46.070;14.492;2023-02-10T14:00:16;20.40;51.70
74153;DHT22;62505;46.070;14.492;2023-02-10T14:02:57;20.40;51.80
74153;DHT22;62505;46.070;14.492;2023-02-10T14:05:28;20.40;51.70
74153;DHT22;62505;46.070;14.492;2023-02-10T14:07:55;20.40;51.70
74153;DHT22;62505;46.070;14.492;2023-02-10T14:10:31;20.30;51.70
74153;DHT22;62505;46.070;14.492;2023-02-10T14:13:01;20.40;51.70
74153;DHT22;62505;46.070;14.492;2023-02-10T14:15:30;20.30;51.70
74153;DHT22;62505;46.070;14.492;2023-02-10T14:18:02;20.30;51.70
74153;DHT22;62505;46.070;14.492;2023-02-10T14:20:37;20.40;51.70
74153;DHT22;62505;46.070;14.492;2023-02-10T14:23:06;20.40;51.70
74153;DHT22;62505;46.070;14.492;2023-02-10T14:25:38;20.40;51.70
74153;DHT22;62505;46.070;14.492;2023-02-10T14:28:19;20.40;51.70
74153;DHT22;62505;46.070;14.492;2023-02-10T14:30:51;20.40;51.70
74153;DHT22;62505;46.070;14.492;2023-02-10T14:33:25;20.40;51.70
74153;DHT22;62505;46.070;14.492;2023-02-10T14:35:54;20.40;51.70
74153;DHT22;62505;46.070;14.492;2023-02-10T14:38:23;20.40;51.70
74153;DHT22;62505;46.070;14.492;2023-02-10T14:40:51;20.40;51.70
74153;DHT22;62505;46.070;14.492;2023-02-10T14:43:24;20.40;51.70
74153;DHT22;62505;46.070;14.492;2023-02-10T14:45:53;20.40;51.70
74153;DHT22;62505;46.070;14.492;2023-02-10T14:48:22;20.40;51.70
74153;DHT22;62505;46.070;14.492;2023-02-10T14:51:01;20.40;51.70
74153;DHT22;62505;46.070;14.492;2023-02-10T14:53:30;20.40;51.70
74153;DHT22;62505;46.070;14.492;2023-02-10T14:55:58;20.40;51.70
74153;DHT22;62505;46.070;14.492;2023-02-10T14:58:27;20.40;51.60
74153;DHT22;62505;46.070;14.492;2023-02-10T15:01:00;20.40;51.70
74153;DHT22;62505;46.070;14.492;2023-02-10T15:03:30;20.40;51.70
74153;DHT22;62505;46.070;14.492;2023-02-10T15:05:58;20.40;51.70
74153;DHT22;62505;46.070;14.492;2023-02-10T15:08:36;20.40;51.60
74153;DHT22;62505;46.070;14.492;2023-02-10T15:11:08;20.40;51.70
74153;DHT22;62505;46.070;14.492;2023-02-10T15:13:40;20.40;51.70
74153;DHT22;62505;46.070;14.492;2023-02-10T15:16:11;20.40;51.60
74153;DHT22;62505;46.070;14.492;2023-02-10T15:18:43;20.40;51.70
74153;DHT22;62505;46.070;14.492;2023-02-10T15:21:26;20.40;51.70
74153;DHT22;62505;46.070;14.492;2023-02-10T15:23:53;20.40;51.60
74153;DHT22;62505;46.070;14.492;2023-02-10T15:26:24;20.40;51.70
74153;DHT22;62505;46.070;14.492;2023-02-10T15:29:02;20.40;51.70
74153;DHT22;62505;46.070;14.492;2023-02-10T15:31:30;20.40;51.70
74153;DHT22;62505;46.070;14.492;2023-02-10T15:34:00;20.40;51.70
74153;DHT22;62505;46.070;14.492;2023-02-10T15:36:28;20.40;51.70
74153;DHT22;62505;46.070;14.492;2023-02-10T15:38:59;20.40;51.70
74153;DHT22;62505;46.070;14.492;2023-02-10T15:41:39;20.40;51.70
74153;DHT22;62505;46.070;14.492;2023-02-10T15:44:24;20.40;52.40